Jacobus — OR3790 — position and weather

sailwx.info

Track history (hours):
 
Tides and Currents Weather Stations Pressure Air Temp Water Temp Dewpoint Dewpoint Depression Visibility Wind Speed Wind Dir Waves Ship Positions

Jacobus

Last reported at 2014-Jul-09 14:25 UTC. Time now 2014-Jul-30 03:07 UTC.
Position N 47°35' W 003°02'.
Warning: this ship's position is 20 days out of date.

Length 17 m.

Type: Pleasure craft. MMSI: 205379010.

Date/timePositionNaut miles runAvg speedWind from/ knotsBaromVisibWave heightAir tempDewpointWater temp
2014-Jul-09 14:25N 47°35' W 003°02'0 0.0
2014-Jul-09 11:19N 47°35' W 003°01'3 3.4
2014-Jul-09 10:33N 47°33' W 002°60'3 3.2
2014-Jul-09 09:31N 47°31' W 002°56'2 2.4
2014-Jul-09 08:33N 47°33' W 002°55'0 0.0
2014-Jul-09 07:33N 47°33' W 002°55'1 1.2
2014-Jul-09 06:33N 47°34' W 002°56'4 0.7
2014-Jul-09 00:12N 47°38' W 002°58'1 0.2
2014-Jul-08 17:26N 47°37' W 002°57'4 3.8
2014-Jul-08 16:28N 47°35' W 002°53'5 4.4
2014-Jul-08 15:25N 47°37' W 002°47'1 0.8
2014-Jul-08 14:32N 47°37' W 002°48'2 2.3
2014-Jul-08 13:32N 47°36' W 002°51'0 0.0
2014-Jul-08 12:23N 47°36' W 002°51'0 0.0
2014-Jul-08 11:23N 47°36' W 002°51'0 0.0
2014-Jul-08 10:23N 47°36' W 002°51'3 4.1
2014-Jul-08 09:33N 47°34' W 002°55'5 5.3
2014-Jul-08 08:31N 47°29' W 002°59'7 5.5
2014-Jul-08 07:19N 47°25' W 003°07'5 2.7
2014-Jul-08 05:33N 47°23' W 003°13'0 0.0
2014-Jul-08 01:11N 47°23' W 003°13'0 0.0
2014-Jul-07 23:08N 47°23' W 003°13'0 0.0
2014-Jul-07 22:19N 47°23' W 003°13'0 0.0
2014-Jul-07 21:15N 47°23' W 003°13'0 0.0
2014-Jul-07 20:32N 47°23' W 003°13'0 0.0
2014-Jul-07 19:33N 47°23' W 003°13'0 0.0
2014-Jul-07 18:34N 47°23' W 003°13'0 0.0
2014-Jul-07 17:33N 47°23' W 003°13'0 0.0
2014-Jul-07 16:32N 47°23' W 003°13'0 0.0
2014-Jul-07 15:33N 47°23' W 003°13'4 4.3
2014-Jul-07 14:32N 47°23' W 003°06'6 5.9
2014-Jul-07 13:33N 47°28' W 003°02'6 5.6
2014-Jul-07 12:33N 47°34' W 003°01'2 1.5
2014-Jul-07 11:33N 47°35' W 003°02'0 0.0
2014-Jul-07 10:33N 47°35' W 003°02'0 0.0
2014-Jul-07 09:33N 47°35' W 003°02'0 0.0
2014-Jul-07 08:30N 47°35' W 003°02'0 0.0
2014-Jul-07 07:28N 47°35' W 003°02'0 0.0
2014-Jul-07 06:31N 47°35' W 003°02'0 0.0
2014-Jul-07 05:31N 47°35' W 003°02'0 0.0
2014-Jul-07 04:31N 47°35' W 003°02'0 0.0
2014-Jul-07 03:16N 47°35' W 003°02'0 0.0
2014-Jul-07 02:31N 47°35' W 003°02'0 0.0
2014-Jul-07 01:31N 47°35' W 003°02'0 0.0
2014-Jul-07 00:31N 47°35' W 003°02'0 0.0
2014-Jul-06 23:31N 47°35' W 003°02'0 0.0
2014-Jul-06 22:31N 47°35' W 003°02'0 0.0
2014-Jul-06 21:31N 47°35' W 003°02'0 0.0
2014-Jul-06 20:31N 47°35' W 003°02'0 0.0
2014-Jul-06 19:31N 47°35' W 003°02'0 0.0
2014-Jul-06 18:28N 47°35' W 003°02'0 0.0
2014-Jul-06 17:28N 47°35' W 003°02'0 0.4
2014-Jul-06 16:33N 47°35' W 003°01'5 4.8
2014-Jul-06 15:33N 47°31' W 002°57'3 3.2
2014-Jul-06 14:32N 47°34' W 002°56'0 0.0
2014-Jul-06 13:33N 47°34' W 002°56'4 3.5
2014-Jul-06 12:33N 47°31' W 002°57'6 5.6
2014-Jul-06 11:32N 47°27' W 003°03'7 2.3
2014-Jul-06 08:23N 47°21' W 003°09'0 0.0
2014-Jul-06 06:21N 47°21' W 003°09'0 0.0
2014-Jul-06 05:20N 47°21' W 003°09'0 0.0
2014-Jul-06 04:17N 47°21' W 003°09'0 0.0
2014-Jul-06 02:26N 47°21' W 003°09'0 0.0
2014-Jul-06 01:12N 47°21' W 003°09'0 0.0
2014-Jul-06 00:29N 47°21' W 003°09'0 0.0
2014-Jul-05 23:31N 47°21' W 003°09'0 0.0
2014-Jul-05 22:33N 47°21' W 003°09'0 0.0
2014-Jul-05 21:26N 47°21' W 003°09'0 0.0
2014-Jul-05 20:31N 47°21' W 003°09'0 0.0
2014-Jul-05 19:33N 47°21' W 003°09'0 0.0
2014-Jul-05 18:29N 47°21' W 003°09'0 0.0
2014-Jul-05 17:32N 47°21' W 003°09'0 0.0
2014-Jul-05 16:33N 47°21' W 003°09'0 0.0
2014-Jul-05 15:26N 47°21' W 003°09'0 0.0
2014-Jul-05 14:33N 47°21' W 003°09'0 0.0
2014-Jul-05 13:33N 47°21' W 003°09'0 0.0
2014-Jul-05 12:28N 47°21' W 003°09'0 0.0
2014-Jul-05 11:10N 47°21' W 003°09'0 0.0
2014-Jul-05 10:31N 47°21' W 003°09'0 0.0
2014-Jul-05 09:25N 47°21' W 003°09'0 0.0
2014-Jul-05 06:31N 47°21' W 003°09'0 0.0
2014-Jul-05 05:23N 47°21' W 003°09'0 0.0
2014-Jul-05 04:25N 47°21' W 003°09'0 0.0
2014-Jul-05 03:25N 47°21' W 003°09'0 0.0
2014-Jul-05 02:31N 47°21' W 003°09'0 0.0
2014-Jul-05 01:30N 47°21' W 003°09'0 0.0
2014-Jul-05 00:33N 47°21' W 003°09'0 0.0
2014-Jul-04 23:05N 47°21' W 003°09'0 0.0
2014-Jul-04 22:33N 47°21' W 003°09'0 0.0
2014-Jul-04 20:28N 47°21' W 003°09'3 0.6
2014-Jul-04 15:24N 47°22' W 003°05'4 4.7
2014-Jul-04 14:33N 47°24' W 002°60'2 1.9
2014-Jul-04 13:32N 47°24' W 002°57'0 0.0
2014-Jul-04 12:29N 47°24' W 002°57'0 0.0
2014-Jul-04 11:33N 47°24' W 002°57'2 2.2
2014-Jul-04 10:33N 47°26' W 002°59'6 6.4
2014-Jul-04 09:33N 47°32' W 003°00'4 3.6
2014-Jul-04 08:32N 47°35' W 003°02'0 0.0
2014-Jul-03 23:28N 47°35' W 003°02'0 0.0
2014-Jul-03 22:29N 47°35' W 003°02'0 0.0
2014-Jul-03 21:25N 47°35' W 003°02'0 0.0
2014-Jul-03 20:16N 47°35' W 003°02'0 0.0
2014-Jul-03 19:29N 47°35' W 003°02'0 0.0
2014-Jul-03 18:05N 47°35' W 003°02'0 0.0
2014-Jul-03 07:29N 47°35' W 003°02'0 0.0
2014-Jul-03 06:32N 47°35' W 003°02'0 0.0
2014-Jul-03 05:32N 47°35' W 003°02'0 0.0
2014-Jul-03 04:32N 47°35' W 003°02'0 0.0
2014-Jul-02 20:29N 47°35' W 003°02'0 0.0
2014-Jul-02 19:32N 47°35' W 003°02'0 0.0
2014-Jul-02 18:29N 47°35' W 003°02'0 0.0
2014-Jul-02 17:20N 47°35' W 003°02'0 0.0
2014-Jul-02 16:23N 47°35' W 003°02'2 2.3
2014-Jul-02 15:33N 47°34' W 003°00'4 3.9
2014-Jul-02 14:33N 47°31' W 002°56'6 5.4
2014-Jul-02 13:29N 47°36' W 002°51'5 0.6
2014-Jul-02 05:21N 47°38' W 002°58'0 0.0
2014-Jul-02 04:33N 47°38' W 002°58'1 0.1
2014-Jul-01 19:31N 47°38' W 002°58'5 5.6
2014-Jul-01 18:33N 47°32' W 002°56'5 4.9
2014-Jul-01 17:32N 47°35' W 003°02'0 0.0
2014-Jul-01 16:20N 47°35' W 003°02'0 0.0
2014-Jul-01 15:32N 47°35' W 003°02'0 0.0
2014-Jul-01 14:32N 47°35' W 003°02'0 0.0
2014-Jul-01 13:11N 47°35' W 003°02'0 0.0
2014-Jul-01 12:05N 47°35' W 003°02'0 0.0
2014-Jul-01 11:17N 47°35' W 003°02'0 0.0
2014-Jul-01 10:29N 47°35' W 003°02'2 1.7
2014-Jul-01 09:33N 47°34' W 003°01'4 4.3
2014-Jul-01 08:34N 47°30' W 003°04'2 1.6
2014-Jul-01 07:31N 47°29' W 003°06'0 0.0
2014-Jul-01 06:31N 47°29' W 003°06'0 0.0
2014-Jul-01 05:31N 47°29' W 003°06'0 0.0
2014-Jul-01 04:31N 47°29' W 003°06'0 0.0
2014-Jul-01 03:31N 47°29' W 003°06'0 0.0
2014-Jul-01 02:31N 47°29' W 003°06'0 0.0
2014-Jul-01 01:31N 47°29' W 003°06'0 0.0
2014-Jul-01 00:32N 47°29' W 003°06'0 0.0
2014-Jun-30 23:31N 47°29' W 003°06'0 0.0
2014-Jun-30 22:31N 47°29' W 003°06'0 0.0
2014-Jun-30 21:32N 47°29' W 003°06'0 0.0
2014-Jun-30 20:31N 47°29' W 003°06'0 0.0
2014-Jun-30 19:32N 47°29' W 003°06'0 0.0
2014-Jun-30 18:32N 47°29' W 003°06'0 0.0
2014-Jun-30 17:32N 47°29' W 003°06'2 2.3
2014-Jun-30 16:33N 47°28' W 003°03'8 4.2
2014-Jun-30 14:32N 47°23' W 003°13'0 0.0
2014-Jun-30 13:33N 47°23' W 003°13'0 0.0
2014-Jun-30 12:34N 47°23' W 003°13'4 0.3
2014-Jun-29 23:29N 47°20' W 003°09'4 1.3
2014-Jun-29 20:30N 47°24' W 003°06'8 8.5
2014-Jun-29 19:33N 47°31' W 003°01'4 3.8
2014-Jun-29 18:29N 47°35' W 003°02'0 0.0
2014-Jun-29 17:32N 47°35' W 003°02'0 0.0
2014-Jun-29 16:29N 47°35' W 003°02'0 0.0
2014-Jun-29 15:32N 47°35' W 003°02'0 0.0
2014-Jun-29 14:32N 47°35' W 003°02'  
Track history (hours):
 
Tides and Currents Weather Stations Pressure Air Temp Water Temp Dewpoint Dewpoint Depression Visibility Wind Speed Wind Dir Waves Ship Positions

Jacobus

Last reported at 2014-Jul-09 14:25 UTC. Time now 2014-Jul-30 03:07 UTC.
Position N 47°35' W 003°02'.
Warning: this ship's position is 20 days out of date.

Length 17 m.

Type: Pleasure craft. MMSI: 205379010.

Date/timePositionNaut miles runAvg speedWind from/ knotsBaromVisibWave heightAir tempDewpointWater temp
2014-Jul-09 14:25N 47°35' W 003°02'0 0.0
2014-Jul-09 11:19N 47°35' W 003°01'3 3.4
2014-Jul-09 10:33N 47°33' W 002°60'3 3.2
2014-Jul-09 09:31N 47°31' W 002°56'2 2.4
2014-Jul-09 08:33N 47°33' W 002°55'0 0.0
2014-Jul-09 07:33N 47°33' W 002°55'1 1.2
2014-Jul-09 06:33N 47°34' W 002°56'4 0.7
2014-Jul-09 00:12N 47°38' W 002°58'1 0.2
2014-Jul-08 17:26N 47°37' W 002°57'4 3.8
2014-Jul-08 16:28N 47°35' W 002°53'5 4.4
2014-Jul-08 15:25N 47°37' W 002°47'1 0.8
2014-Jul-08 14:32N 47°37' W 002°48'2 2.3
2014-Jul-08 13:32N 47°36' W 002°51'0 0.0
2014-Jul-08 12:23N 47°36' W 002°51'0 0.0
2014-Jul-08 11:23N 47°36' W 002°51'0 0.0
2014-Jul-08 10:23N 47°36' W 002°51'3 4.1
2014-Jul-08 09:33N 47°34' W 002°55'5 5.3
2014-Jul-08 08:31N 47°29' W 002°59'7 5.5
2014-Jul-08 07:19N 47°25' W 003°07'5 2.7
2014-Jul-08 05:33N 47°23' W 003°13'0 0.0
2014-Jul-08 01:11N 47°23' W 003°13'0 0.0
2014-Jul-07 23:08N 47°23' W 003°13'0 0.0
2014-Jul-07 22:19N 47°23' W 003°13'0 0.0
2014-Jul-07 21:15N 47°23' W 003°13'0 0.0
2014-Jul-07 20:32N 47°23' W 003°13'0 0.0
2014-Jul-07 19:33N 47°23' W 003°13'0 0.0
2014-Jul-07 18:34N 47°23' W 003°13'0 0.0
2014-Jul-07 17:33N 47°23' W 003°13'0 0.0
2014-Jul-07 16:32N 47°23' W 003°13'0 0.0
2014-Jul-07 15:33N 47°23' W 003°13'4 4.3
2014-Jul-07 14:32N 47°23' W 003°06'6 5.9
2014-Jul-07 13:33N 47°28' W 003°02'6 5.6
2014-Jul-07 12:33N 47°34' W 003°01'2 1.5
2014-Jul-07 11:33N 47°35' W 003°02'0 0.0
2014-Jul-07 10:33N 47°35' W 003°02'0 0.0
2014-Jul-07 09:33N 47°35' W 003°02'0 0.0
2014-Jul-07 08:30N 47°35' W 003°02'0 0.0
2014-Jul-07 07:28N 47°35' W 003°02'0 0.0
2014-Jul-07 06:31N 47°35' W 003°02'0 0.0
2014-Jul-07 05:31N 47°35' W 003°02'0 0.0
2014-Jul-07 04:31N 47°35' W 003°02'0 0.0
2014-Jul-07 03:16N 47°35' W 003°02'0 0.0
2014-Jul-07 02:31N 47°35' W 003°02'0 0.0
2014-Jul-07 01:31N 47°35' W 003°02'0 0.0
2014-Jul-07 00:31N 47°35' W 003°02'0 0.0
2014-Jul-06 23:31N 47°35' W 003°02'0 0.0
2014-Jul-06 22:31N 47°35' W 003°02'0 0.0
2014-Jul-06 21:31N 47°35' W 003°02'0 0.0
2014-Jul-06 20:31N 47°35' W 003°02'0 0.0
2014-Jul-06 19:31N 47°35' W 003°02'0 0.0
2014-Jul-06 18:28N 47°35' W 003°02'0 0.0
2014-Jul-06 17:28N 47°35' W 003°02'0 0.4
2014-Jul-06 16:33N 47°35' W 003°01'5 4.8
2014-Jul-06 15:33N 47°31' W 002°57'3 3.2
2014-Jul-06 14:32N 47°34' W 002°56'0 0.0
2014-Jul-06 13:33N 47°34' W 002°56'4 3.5
2014-Jul-06 12:33N 47°31' W 002°57'6 5.6
2014-Jul-06 11:32N 47°27' W 003°03'7 2.3
2014-Jul-06 08:23N 47°21' W 003°09'0 0.0
2014-Jul-06 06:21N 47°21' W 003°09'0 0.0
2014-Jul-06 05:20N 47°21' W 003°09'0 0.0
2014-Jul-06 04:17N 47°21' W 003°09'0 0.0
2014-Jul-06 02:26N 47°21' W 003°09'0 0.0
2014-Jul-06 01:12N 47°21' W 003°09'0 0.0
2014-Jul-06 00:29N 47°21' W 003°09'0 0.0
2014-Jul-05 23:31N 47°21' W 003°09'0 0.0
2014-Jul-05 22:33N 47°21' W 003°09'0 0.0
2014-Jul-05 21:26N 47°21' W 003°09'0 0.0
2014-Jul-05 20:31N 47°21' W 003°09'0 0.0
2014-Jul-05 19:33N 47°21' W 003°09'0 0.0
2014-Jul-05 18:29N 47°21' W 003°09'0 0.0
2014-Jul-05 17:32N 47°21' W 003°09'0 0.0
2014-Jul-05 16:33N 47°21' W 003°09'0 0.0
2014-Jul-05 15:26N 47°21' W 003°09'0 0.0
2014-Jul-05 14:33N 47°21' W 003°09'0 0.0
2014-Jul-05 13:33N 47°21' W 003°09'0 0.0
2014-Jul-05 12:28N 47°21' W 003°09'0 0.0
2014-Jul-05 11:10N 47°21' W 003°09'0 0.0
2014-Jul-05 10:31N 47°21' W 003°09'0 0.0
2014-Jul-05 09:25N 47°21' W 003°09'0 0.0
2014-Jul-05 06:31N 47°21' W 003°09'0 0.0
2014-Jul-05 05:23N 47°21' W 003°09'0 0.0
2014-Jul-05 04:25N 47°21' W 003°09'0 0.0
2014-Jul-05 03:25N 47°21' W 003°09'0 0.0
2014-Jul-05 02:31N 47°21' W 003°09'0 0.0
2014-Jul-05 01:30N 47°21' W 003°09'0 0.0
2014-Jul-05 00:33N 47°21' W 003°09'0 0.0
2014-Jul-04 23:05N 47°21' W 003°09'0 0.0
2014-Jul-04 22:33N 47°21' W 003°09'0 0.0
2014-Jul-04 20:28N 47°21' W 003°09'3 0.6
2014-Jul-04 15:24N 47°22' W 003°05'4 4.7
2014-Jul-04 14:33N 47°24' W 002°60'2 1.9
2014-Jul-04 13:32N 47°24' W 002°57'0 0.0
2014-Jul-04 12:29N 47°24' W 002°57'0 0.0
2014-Jul-04 11:33N 47°24' W 002°57'2 2.2
2014-Jul-04 10:33N 47°26' W 002°59'6 6.4
2014-Jul-04 09:33N 47°32' W 003°00'4 3.6
2014-Jul-04 08:32N 47°35' W 003°02'0 0.0
2014-Jul-03 23:28N 47°35' W 003°02'0 0.0
2014-Jul-03 22:29N 47°35' W 003°02'0 0.0
2014-Jul-03 21:25N 47°35' W 003°02'0 0.0
2014-Jul-03 20:16N 47°35' W 003°02'0 0.0
2014-Jul-03 19:29N 47°35' W 003°02'0 0.0
2014-Jul-03 18:05N 47°35' W 003°02'0 0.0
2014-Jul-03 07:29N 47°35' W 003°02'0 0.0
2014-Jul-03 06:32N 47°35' W 003°02'0 0.0
2014-Jul-03 05:32N 47°35' W 003°02'0 0.0
2014-Jul-03 04:32N 47°35' W 003°02'0 0.0
2014-Jul-02 20:29N 47°35' W 003°02'0 0.0
2014-Jul-02 19:32N 47°35' W 003°02'0 0.0
2014-Jul-02 18:29N 47°35' W 003°02'0 0.0
2014-Jul-02 17:20N 47°35' W 003°02'0 0.0
2014-Jul-02 16:23N 47°35' W 003°02'2 2.3
2014-Jul-02 15:33N 47°34' W 003°00'4 3.9
2014-Jul-02 14:33N 47°31' W 002°56'6 5.4
2014-Jul-02 13:29N 47°36' W 002°51'5 0.6
2014-Jul-02 05:21N 47°38' W 002°58'0 0.0
2014-Jul-02 04:33N 47°38' W 002°58'1 0.1
2014-Jul-01 19:31N 47°38' W 002°58'5 5.6
2014-Jul-01 18:33N 47°32' W 002°56'5 4.9
2014-Jul-01 17:32N 47°35' W 003°02'0 0.0
2014-Jul-01 16:20N 47°35' W 003°02'0 0.0
2014-Jul-01 15:32N 47°35' W 003°02'0 0.0
2014-Jul-01 14:32N 47°35' W 003°02'0 0.0
2014-Jul-01 13:11N 47°35' W 003°02'0 0.0
2014-Jul-01 12:05N 47°35' W 003°02'0 0.0
2014-Jul-01 11:17N 47°35' W 003°02'0 0.0
2014-Jul-01 10:29N 47°35' W 003°02'2 1.7
2014-Jul-01 09:33N 47°34' W 003°01'4 4.3
2014-Jul-01 08:34N 47°30' W 003°04'2 1.6
2014-Jul-01 07:31N 47°29' W 003°06'0 0.0
2014-Jul-01 06:31N 47°29' W 003°06'0 0.0
2014-Jul-01 05:31N 47°29' W 003°06'0 0.0
2014-Jul-01 04:31N 47°29' W 003°06'0 0.0
2014-Jul-01 03:31N 47°29' W 003°06'0 0.0
2014-Jul-01 02:31N 47°29' W 003°06'0 0.0
2014-Jul-01 01:31N 47°29' W 003°06'0 0.0
2014-Jul-01 00:32N 47°29' W 003°06'0 0.0
2014-Jun-30 23:31N 47°29' W 003°06'0 0.0
2014-Jun-30 22:31N 47°29' W 003°06'0 0.0
2014-Jun-30 21:32N 47°29' W 003°06'0 0.0
2014-Jun-30 20:31N 47°29' W 003°06'0 0.0
2014-Jun-30 19:32N 47°29' W 003°06'0 0.0
2014-Jun-30 18:32N 47°29' W 003°06'0 0.0
2014-Jun-30 17:32N 47°29' W 003°06'2 2.3
2014-Jun-30 16:33N 47°28' W 003°03'8 4.2
2014-Jun-30 14:32N 47°23' W 003°13'0 0.0
2014-Jun-30 13:33N 47°23' W 003°13'0 0.0
2014-Jun-30 12:34N 47°23' W 003°13'4 0.3
2014-Jun-29 23:29N 47°20' W 003°09'4 1.3
2014-Jun-29 20:30N 47°24' W 003°06'8 8.5
2014-Jun-29 19:33N 47°31' W 003°01'4 3.8
2014-Jun-29 18:29N 47°35' W 003°02'0 0.0
2014-Jun-29 17:32N 47°35' W 003°02'0 0.0
2014-Jun-29 16:29N 47°35' W 003°02'0 0.0
2014-Jun-29 15:32N 47°35' W 003°02'0 0.0
2014-Jun-29 14:32N 47°35' W 003°02'  

Dump ship's entire track history